sensor_id;sensor_type;location;lat;lon;timestamp;pressure;altitude;pressure_sealevel;temperature;humidity
57847;BME280;43675;50.030;21.952;2023-04-26T00:01:16;97867.95;;;6.31;83.55
57847;BME280;43675;50.030;21.952;2023-04-26T00:03:43;97861.14;;;6.31;83.55
57847;BME280;43675;50.030;21.952;2023-04-26T00:06:09;97859.18;;;6.32;83.58
57847;BME280;43675;50.030;21.952;2023-04-26T00:08:36;97859.95;;;6.31;83.42
57847;BME280;43675;50.030;21.952;2023-04-26T00:11:02;97855.97;;;6.32;83.53
57847;BME280;43675;50.030;21.952;2023-04-26T00:13:29;97857.36;;;6.32;83.49
57847;BME280;43675;50.030;21.952;2023-04-26T00:15:55;97856.70;;;6.31;83.53
57847;BME280;43675;50.030;21.952;2023-04-26T00:18:22;97856.91;;;6.31;83.51
57847;BME280;43675;50.030;21.952;2023-04-26T00:20:49;97855.69;;;6.31;83.43
57847;BME280;43675;50.030;21.952;2023-04-26T00:23:15;97856.19;;;6.31;83.42
57847;BME280;43675;50.030;21.952;2023-04-26T00:25:42;97856.20;;;6.32;83.50
57847;BME280;43675;50.030;21.952;2023-04-26T00:28:08;97858.96;;;6.33;83.39
57847;BME280;43675;50.030;21.952;2023-04-26T00:30:35;97857.38;;;6.33;83.39
57847;BME280;43675;50.030;21.952;2023-04-26T00:33:01;97859.86;;;6.34;83.46
57847;BME280;43675;50.030;21.952;2023-04-26T00:35:28;97865.72;;;6.36;83.42
57847;BME280;43675;50.030;21.952;2023-04-26T00:37:54;97866.88;;;6.35;83.39
57847;BME280;43675;50.030;21.952;2023-04-26T00:40:21;97864.70;;;6.37;83.22
57847;BME280;43675;50.030;21.952;2023-04-26T00:42:47;97861.88;;;6.34;83.28
57847;BME280;43675;50.030;21.952;2023-04-26T00:45:14;97876.14;;;6.31;83.19
57847;BME280;43675;50.030;21.952;2023-04-26T00:47:41;97875.53;;;6.28;83.14
57847;BME280;43675;50.030;21.952;2023-04-26T00:50:08;97875.63;;;6.23;83.32
57847;BME280;43675;50.030;21.952;2023-04-26T00:52:35;97875.86;;;6.18;83.34
57847;BME280;43675;50.030;21.952;2023-04-26T00:55:02;97869.92;;;6.15;83.43
57847;BME280;43675;50.030;21.952;2023-04-26T00:57:29;97874.64;;;6.13;83.36
57847;BME280;43675;50.030;21.952;2023-04-26T00:59:55;97877.35;;;6.10;83.44
57847;BME280;43675;50.030;21.952;2023-04-26T01:02:22;97879.11;;;6.08;83.44
57847;BME280;43675;50.030;21.952;2023-04-26T01:04:48;97879.56;;;6.04;83.37
57847;BME280;43675;50.030;21.952;2023-04-26T01:07:15;97879.60;;;6.00;83.34
57847;BME280;43675;50.030;21.952;2023-04-26T01:09:43;97885.67;;;5.96;83.45
57847;BME280;43675;50.030;21.952;2023-04-26T01:12:10;97887.92;;;5.92;83.35
57847;BME280;43675;50.030;21.952;2023-04-26T01:14:38;97890.00;;;5.90;83.47
57847;BME280;43675;50.030;21.952;2023-04-26T01:17:05;97889.04;;;5.87;83.53
57847;BME280;43675;50.030;21.952;2023-04-26T01:19:32;97892.92;;;5.84;83.77
57847;BME280;43675;50.030;21.952;2023-04-26T01:21:58;97895.57;;;5.81;83.56
57847;BME280;43675;50.030;21.952;2023-04-26T01:24:25;97895.29;;;5.80;83.70
57847;BME280;43675;50.030;21.952;2023-04-26T01:26:51;97896.23;;;5.78;83.69
57847;BME280;43675;50.030;21.952;2023-04-26T01:29:20;97891.84;;;5.78;83.85
57847;BME280;43675;50.030;21.952;2023-04-26T01:31:47;97893.73;;;5.80;83.93
57847;BME280;43675;50.030;21.952;2023-04-26T01:34:14;97898.65;;;5.84;84.18
57847;BME280;43675;50.030;21.952;2023-04-26T01:36:41;97903.44;;;5.88;84.02
57847;BME280;43675;50.030;21.952;2023-04-26T01:39:07;97903.58;;;5.92;84.15
57847;BME280;43675;50.030;21.952;2023-04-26T01:41:34;97903.69;;;5.96;84.09
57847;BME280;43675;50.030;21.952;2023-04-26T01:44:00;97904.39;;;6.00;84.04
57847;BME280;43675;50.030;21.952;2023-04-26T01:46:27;97898.09;;;6.04;84.04
57847;BME280;43675;50.030;21.952;2023-04-26T01:48:54;97897.39;;;6.05;83.96
57847;BME280;43675;50.030;21.952;2023-04-26T01:51:20;97891.61;;;6.06;83.92
57847;BME280;43675;50.030;21.952;2023-04-26T01:53:47;97898.30;;;6.06;83.98
57847;BME280;43675;50.030;21.952;2023-04-26T01:56:13;97899.11;;;6.07;83.98
57847;BME280;43675;50.030;21.952;2023-04-26T01:58:40;97905.59;;;6.08;84.04
57847;BME280;43675;50.030;21.952;2023-04-26T02:01:07;97903.33;;;6.08;83.96
57847;BME280;43675;50.030;21.952;2023-04-26T02:03:35;97902.02;;;6.10;84.12
57847;BME280;43675;50.030;21.952;2023-04-26T02:06:01;97910.58;;;6.12;83.82
57847;BME280;43675;50.030;21.952;2023-04-26T02:08:28;97909.43;;;6.13;83.79
57847;BME280;43675;50.030;21.952;2023-04-26T02:10:55;97910.39;;;6.11;83.64
57847;BME280;43675;50.030;21.952;2023-04-26T02:13:22;97910.05;;;6.09;83.62
57847;BME280;43675;50.030;21.952;2023-04-26T02:15:49;97913.81;;;6.06;83.62
57847;BME280;43675;50.030;21.952;2023-04-26T02:18:16;97920.22;;;6.04;83.65
57847;BME280;43675;50.030;21.952;2023-04-26T02:20:43;97915.66;;;6.03;83.68
57847;BME280;43675;50.030;21.952;2023-04-26T02:23:10;97916.06;;;6.02;83.84
57847;BME280;43675;50.030;21.952;2023-04-26T02:25:38;97918.16;;;6.02;83.78
57847;BME280;43675;50.030;21.952;2023-04-26T02:28:05;97916.44;;;6.02;83.64
57847;BME280;43675;50.030;21.952;2023-04-26T02:30:32;97915.33;;;6.01;83.69
57847;BME280;43675;50.030;21.952;2023-04-26T02:32:58;97914.75;;;5.99;83.63
57847;BME280;43675;50.030;21.952;2023-04-26T02:35:25;97919.55;;;5.96;83.56
57847;BME280;43675;50.030;21.952;2023-04-26T02:37:51;97918.41;;;5.93;83.35
57847;BME280;43675;50.030;21.952;2023-04-26T02:40:18;97919.46;;;5.90;83.54
57847;BME280;43675;50.030;21.952;2023-04-26T02:42:46;97922.12;;;5.88;83.41
57847;BME280;43675;50.030;21.952;2023-04-26T02:45:12;97925.27;;;5.86;83.38
57847;BME280;43675;50.030;21.952;2023-04-26T02:47:39;97926.25;;;5.87;83.27
57847;BME280;43675;50.030;21.952;2023-04-26T02:50:06;97926.84;;;5.85;83.29
57847;BME280;43675;50.030;21.952;2023-04-26T02:52:34;97926.96;;;5.85;83.25
57847;BME280;43675;50.030;21.952;2023-04-26T02:55:04;97932.73;;;5.87;83.23
57847;BME280;43675;50.030;21.952;2023-04-26T02:57:31;97933.41;;;5.85;83.19
57847;BME280;43675;50.030;21.952;2023-04-26T02:59:58;97930.52;;;5.83;83.06
57847;BME280;43675;50.030;21.952;2023-04-26T03:02:25;97934.82;;;5.80;83.01
57847;BME280;43675;50.030;21.952;2023-04-26T03:04:51;97937.52;;;5.77;83.11
57847;BME280;43675;50.030;21.952;2023-04-26T03:07:18;97938.77;;;5.74;83.05
57847;BME280;43675;50.030;21.952;2023-04-26T03:09:44;97944.91;;;5.70;82.91
57847;BME280;43675;50.030;21.952;2023-04-26T03:12:11;97948.77;;;5.67;82.88
57847;BME280;43675;50.030;21.952;2023-04-26T03:14:38;97955.95;;;5.63;82.70
57847;BME280;43675;50.030;21.952;2023-04-26T03:17:04;97960.48;;;5.60;82.81
57847;BME280;43675;50.030;21.952;2023-04-26T03:19:31;97966.17;;;5.57;82.78
57847;BME280;43675;50.030;21.952;2023-04-26T03:21:57;97966.70;;;5.55;82.74
57847;BME280;43675;50.030;21.952;2023-04-26T03:24:24;97971.68;;;5.52;82.66
57847;BME280;43675;50.030;21.952;2023-04-26T03:26:50;97977.38;;;5.49;82.58
57847;BME280;43675;50.030;21.952;2023-04-26T03:29:17;97974.53;;;5.48;82.68
57847;BME280;43675;50.030;21.952;2023-04-26T03:31:43;97979.21;;;5.48;82.94
57847;BME280;43675;50.030;21.952;2023-04-26T03:34:10;97980.24;;;5.49;82.59
57847;BME280;43675;50.030;21.952;2023-04-26T03:36:36;97980.20;;;5.52;82.75
57847;BME280;43675;50.030;21.952;2023-04-26T03:39:03;97989.96;;;5.56;82.55
57847;BME280;43675;50.030;21.952;2023-04-26T03:41:29;97991.48;;;5.61;82.40
57847;BME280;43675;50.030;21.952;2023-04-26T03:43:56;98000.23;;;5.64;82.47
57847;BME280;43675;50.030;21.952;2023-04-26T03:46:22;97992.55;;;5.67;82.29
57847;BME280;43675;50.030;21.952;2023-04-26T03:48:49;97994.35;;;5.71;82.14
57847;BME280;43675;50.030;21.952;2023-04-26T03:51:15;97999.31;;;5.74;81.90
57847;BME280;43675;50.030;21.952;2023-04-26T03:53:42;98001.41;;;5.76;81.71
57847;BME280;43675;50.030;21.952;2023-04-26T03:56:08;98010.84;;;5.77;81.53
57847;BME280;43675;50.030;21.952;2023-04-26T03:58:35;98010.79;;;5.77;81.34
57847;BME280;43675;50.030;21.952;2023-04-26T04:01:01;98010.39;;;5.78;81.05
57847;BME280;43675;50.030;21.952;2023-04-26T04:03:28;98014.73;;;5.77;80.84
57847;BME280;43675;50.030;21.952;2023-04-26T04:05:54;98016.77;;;5.75;80.62
57847;BME280;43675;50.030;21.952;2023-04-26T04:08:21;98021.92;;;5.72;80.37
57847;BME280;43675;50.030;21.952;2023-04-26T04:10:48;98023.02;;;5.69;80.17
57847;BME280;43675;50.030;21.952;2023-04-26T04:13:14;98028.16;;;5.66;80.03
57847;BME280;43675;50.030;21.952;2023-04-26T04:15:41;98026.67;;;5.66;79.97
57847;BME280;43675;50.030;21.952;2023-04-26T04:18:07;98028.57;;;5.66;79.82
57847;BME280;43675;50.030;21.952;2023-04-26T04:20:34;98031.33;;;5.69;79.79
57847;BME280;43675;50.030;21.952;2023-04-26T04:23:00;98036.26;;;5.74;79.65
57847;BME280;43675;50.030;21.952;2023-04-26T04:25:27;98039.09;;;5.77;79.45
57847;BME280;43675;50.030;21.952;2023-04-26T04:27:54;98040.21;;;5.82;79.34
57847;BME280;43675;50.030;21.952;2023-04-26T04:30:20;98043.16;;;5.86;79.12
57847;BME280;43675;50.030;21.952;2023-04-26T04:32:47;98044.66;;;5.90;78.86
57847;BME280;43675;50.030;21.952;2023-04-26T04:35:13;98049.88;;;5.93;78.71
57847;BME280;43675;50.030;21.952;2023-04-26T04:37:39;98051.70;;;5.98;78.51
57847;BME280;43675;50.030;21.952;2023-04-26T04:40:07;98056.05;;;6.03;78.33
57847;BME280;43675;50.030;21.952;2023-04-26T04:42:33;98057.05;;;6.09;78.05
57847;BME280;43675;50.030;21.952;2023-04-26T04:45:00;98060.97;;;6.14;78.02
57847;BME280;43675;50.030;21.952;2023-04-26T04:47:26;98064.10;;;6.19;77.72
57847;BME280;43675;50.030;21.952;2023-04-26T04:49:53;98062.23;;;6.22;77.46
57847;BME280;43675;50.030;21.952;2023-04-26T04:52:19;98065.45;;;6.22;76.91
57847;BME280;43675;50.030;21.952;2023-04-26T04:54:46;98068.36;;;6.24;76.71
57847;BME280;43675;50.030;21.952;2023-04-26T04:57:13;98067.23;;;6.29;76.75
57847;BME280;43675;50.030;21.952;2023-04-26T04:59:39;98067.41;;;6.35;76.53
57847;BME280;43675;50.030;21.952;2023-04-26T05:02:06;98070.98;;;6.39;76.10
57847;BME280;43675;50.030;21.952;2023-04-26T05:04:32;98068.65;;;6.43;75.86
57847;BME280;43675;50.030;21.952;2023-04-26T05:06:59;98072.72;;;6.50;75.63
57847;BME280;43675;50.030;21.952;2023-04-26T05:09:26;98069.36;;;6.54;75.23
57847;BME280;43675;50.030;21.952;2023-04-26T05:11:52;98076.42;;;6.57;74.86
57847;BME280;43675;50.030;21.952;2023-04-26T05:14:19;98079.66;;;6.58;74.47
57847;BME280;43675;50.030;21.952;2023-04-26T05:16:45;98083.67;;;6.60;74.25
57847;BME280;43675;50.030;21.952;2023-04-26T05:19:12;98082.41;;;6.65;74.20
57847;BME280;43675;50.030;21.952;2023-04-26T05:21:38;98084.52;;;6.76;74.02
57847;BME280;43675;50.030;21.952;2023-04-26T05:24:05;98093.38;;;6.87;73.87
57847;BME280;43675;50.030;21.952;2023-04-26T05:26:34;98093.80;;;6.90;73.28
57847;BME280;43675;50.030;21.952;2023-04-26T05:29:00;98095.80;;;6.86;72.75
57847;BME280;43675;50.030;21.952;2023-04-26T05:31:27;98099.21;;;6.88;72.82
57847;BME280;43675;50.030;21.952;2023-04-26T05:33:53;98101.92;;;6.89;72.49
57847;BME280;43675;50.030;21.952;2023-04-26T05:36:20;98107.50;;;6.89;72.21
57847;BME280;43675;50.030;21.952;2023-04-26T05:38:47;98110.52;;;6.89;71.68
57847;BME280;43675;50.030;21.952;2023-04-26T05:41:13;98106.89;;;6.92;71.24
57847;BME280;43675;50.030;21.952;2023-04-26T05:43:40;98107.58;;;6.97;70.94
57847;BME280;43675;50.030;21.952;2023-04-26T05:46:06;98113.94;;;7.03;70.55
57847;BME280;43675;50.030;21.952;2023-04-26T05:48:33;98118.37;;;7.07;70.31
57847;BME280;43675;50.030;21.952;2023-04-26T05:50:59;98122.36;;;7.08;69.91
57847;BME280;43675;50.030;21.952;2023-04-26T05:53:26;98127.73;;;7.09;69.78
57847;BME280;43675;50.030;21.952;2023-04-26T05:55:53;98126.73;;;7.13;69.86
57847;BME280;43675;50.030;21.952;2023-04-26T05:58:19;98133.44;;;7.18;69.32
57847;BME280;43675;50.030;21.952;2023-04-26T06:00:46;98131.67;;;7.18;68.63
57847;BME280;43675;50.030;21.952;2023-04-26T06:03:12;98131.84;;;7.12;68.26
57847;BME280;43675;50.030;21.952;2023-04-26T06:05:39;98142.24;;;7.09;67.91
57847;BME280;43675;50.030;21.952;2023-04-26T06:08:05;98141.41;;;7.13;67.80
57847;BME280;43675;50.030;21.952;2023-04-26T06:10:32;98141.16;;;7.11;67.72
57847;BME280;43675;50.030;21.952;2023-04-26T06:12:58;98147.20;;;7.15;67.97
57847;BME280;43675;50.030;21.952;2023-04-26T06:15:25;98150.52;;;7.23;67.68
57847;BME280;43675;50.030;21.952;2023-04-26T06:17:51;98153.35;;;7.22;67.41
57847;BME280;43675;50.030;21.952;2023-04-26T06:20:18;98157.33;;;7.19;66.95
57847;BME280;43675;50.030;21.952;2023-04-26T06:22:44;98162.06;;;7.15;66.67
57847;BME280;43675;50.030;21.952;2023-04-26T06:25:11;98164.08;;;7.17;66.80
57847;BME280;43675;50.030;21.952;2023-04-26T06:27:38;98159.76;;;7.13;66.50
57847;BME280;43675;50.030;21.952;2023-04-26T06:30:05;98161.04;;;7.13;66.83
57847;BME280;43675;50.030;21.952;2023-04-26T06:32:32;98167.52;;;7.17;66.76
57847;BME280;43675;50.030;21.952;2023-04-26T06:34:59;98165.73;;;7.19;66.55
57847;BME280;43675;50.030;21.952;2023-04-26T06:37:27;98169.52;;;7.18;66.31
57847;BME280;43675;50.030;21.952;2023-04-26T06:39:53;98169.44;;;7.16;66.34
57847;BME280;43675;50.030;21.952;2023-04-26T06:42:20;98171.13;;;7.17;66.24
57847;BME280;43675;50.030;21.952;2023-04-26T06:44:46;98175.77;;;7.22;66.35
57847;BME280;43675;50.030;21.952;2023-04-26T06:47:13;98175.36;;;7.24;65.86
57847;BME280;43675;50.030;21.952;2023-04-26T06:49:39;98176.14;;;7.27;65.80
57847;BME280;43675;50.030;21.952;2023-04-26T06:52:06;98175.36;;;7.41;65.87
57847;BME280;43675;50.030;21.952;2023-04-26T06:54:32;98176.46;;;7.52;65.40
57847;BME280;43675;50.030;21.952;2023-04-26T06:56:59;98175.38;;;7.57;65.27
57847;BME280;43675;50.030;21.952;2023-04-26T06:59:25;98185.35;;;7.61;64.86
57847;BME280;43675;50.030;21.952;2023-04-26T07:01:52;98180.39;;;7.58;64.84
57847;BME280;43675;50.030;21.952;2023-04-26T07:04:19;98180.84;;;7.55;64.64
57847;BME280;43675;50.030;21.952;2023-04-26T07:06:45;98183.66;;;7.48;64.39
57847;BME280;43675;50.030;21.952;2023-04-26T07:09:12;98180.66;;;7.40;64.24
57847;BME280;43675;50.030;21.952;2023-04-26T07:11:38;98187.34;;;7.42;64.61
57847;BME280;43675;50.030;21.952;2023-04-26T07:14:05;98189.64;;;7.44;64.31
57847;BME280;43675;50.030;21.952;2023-04-26T07:16:31;98190.01;;;7.43;64.34
57847;BME280;43675;50.030;21.952;2023-04-26T07:18:58;98192.86;;;7.47;64.30
57847;BME280;43675;50.030;21.952;2023-04-26T07:21:25;98198.14;;;7.54;64.21
57847;BME280;43675;50.030;21.952;2023-04-26T07:23:55;98200.23;;;7.54;64.16
57847;BME280;43675;50.030;21.952;2023-04-26T07:26:23;98199.84;;;7.53;63.93
57847;BME280;43675;50.030;21.952;2023-04-26T07:28:50;98199.29;;;7.60;63.92
57847;BME280;43675;50.030;21.952;2023-04-26T07:31:17;98198.91;;;7.72;63.94
57847;BME280;43675;50.030;21.952;2023-04-26T07:33:44;98192.30;;;7.92;63.77
57847;BME280;43675;50.030;21.952;2023-04-26T07:36:10;98190.40;;;8.07;63.51
57847;BME280;43675;50.030;21.952;2023-04-26T07:38:37;98195.04;;;8.23;63.25
57847;BME280;43675;50.030;21.952;2023-04-26T07:41:04;98194.83;;;8.32;63.19
57847;BME280;43675;50.030;21.952;2023-04-26T07:43:30;98194.35;;;8.41;63.22
57847;BME280;43675;50.030;21.952;2023-04-26T07:46:00;98195.99;;;8.58;63.18
57847;BME280;43675;50.030;21.952;2023-04-26T07:48:27;98203.02;;;8.76;62.65
57847;BME280;43675;50.030;21.952;2023-04-26T07:50:54;98205.84;;;8.86;62.03
57847;BME280;43675;50.030;21.952;2023-04-26T07:53:21;98203.53;;;8.93;61.26
57847;BME280;43675;50.030;21.952;2023-04-26T07:55:49;98204.01;;;8.97;61.08
57847;BME280;43675;50.030;21.952;2023-04-26T07:58:16;98204.70;;;9.03;61.05
57847;BME280;43675;50.030;21.952;2023-04-26T08:00:43;98205.61;;;9.04;60.91
57847;BME280;43675;50.030;21.952;2023-04-26T08:03:09;98209.02;;;9.04;60.62
57847;BME280;43675;50.030;21.952;2023-04-26T08:05:36;98206.37;;;8.96;60.04
57847;BME280;43675;50.030;21.952;2023-04-26T08:08:02;98202.98;;;8.97;60.02
57847;BME280;43675;50.030;21.952;2023-04-26T08:10:29;98206.19;;;9.15;60.05
57847;BME280;43675;50.030;21.952;2023-04-26T08:12:55;98207.77;;;9.31;59.39
57847;BME280;43675;50.030;21.952;2023-04-26T08:15:22;98205.95;;;9.33;58.24
57847;BME280;43675;50.030;21.952;2023-04-26T08:17:49;98211.42;;;9.26;58.07
57847;BME280;43675;50.030;21.952;2023-04-26T08:20:15;98213.44;;;9.16;57.76
57847;BME280;43675;50.030;21.952;2023-04-26T08:22:42;98212.27;;;9.10;57.31
57847;BME280;43675;50.030;21.952;2023-04-26T08:25:08;98206.92;;;9.17;56.90
57847;BME280;43675;50.030;21.952;2023-04-26T08:27:35;98199.20;;;9.20;56.24
57847;BME280;43675;50.030;21.952;2023-04-26T08:30:03;98209.64;;;9.28;56.26
57847;BME280;43675;50.030;21.952;2023-04-26T08:32:29;98196.56;;;9.30;55.77
57847;BME280;43675;50.030;21.952;2023-04-26T08:34:56;98201.38;;;9.37;55.95
57847;BME280;43675;50.030;21.952;2023-04-26T08:37:22;98195.52;;;9.43;55.53
57847;BME280;43675;50.030;21.952;2023-04-26T08:39:49;98195.11;;;9.54;56.02
57847;BME280;43675;50.030;21.952;2023-04-26T08:42:16;98200.91;;;9.71;55.85
57847;BME280;43675;50.030;21.952;2023-04-26T08:44:44;98189.66;;;9.88;55.24
57847;BME280;43675;50.030;21.952;2023-04-26T08:47:34;98192.76;;;10.03;54.42
57847;BME280;43675;50.030;21.952;2023-04-26T08:50:05;98194.20;;;10.15;53.88
57847;BME280;43675;50.030;21.952;2023-04-26T08:52:31;98190.30;;;10.16;53.74
57847;BME280;43675;50.030;21.952;2023-04-26T08:54:59;98198.70;;;10.12;53.48
57847;BME280;43675;50.030;21.952;2023-04-26T08:57:26;98196.73;;;9.90;53.11
57847;BME280;43675;50.030;21.952;2023-04-26T08:59:54;98209.00;;;9.66;53.21
57847;BME280;43675;50.030;21.952;2023-04-26T09:02:22;98209.73;;;9.42;53.39
57847;BME280;43675;50.030;21.952;2023-04-26T09:04:50;98206.33;;;9.35;53.94
57847;BME280;43675;50.030;21.952;2023-04-26T09:07:21;98216.17;;;9.41;53.67
57847;BME280;43675;50.030;21.952;2023-04-26T09:09:53;98217.59;;;9.50;53.21
57847;BME280;43675;50.030;21.952;2023-04-26T09:12:22;98207.15;;;9.74;53.05
57847;BME280;43675;50.030;21.952;2023-04-26T09:14:48;98207.32;;;10.08;52.90
57847;BME280;43675;50.030;21.952;2023-04-26T09:19:54;98223.14;;;10.42;51.29
57847;BME280;43675;50.030;21.952;2023-04-26T09:22:31;98223.13;;;10.43;50.96
57847;BME280;43675;50.030;21.952;2023-04-26T09:24:59;98222.67;;;10.28;50.58
57847;BME280;43675;50.030;21.952;2023-04-26T09:27:37;98233.79;;;10.04;50.53
57847;BME280;43675;50.030;21.952;2023-04-26T09:33:02;98228.58;;;9.52;51.33
57847;BME280;43675;50.030;21.952;2023-04-26T09:35:35;98231.15;;;9.48;51.86
57847;BME280;43675;50.030;21.952;2023-04-26T09:38:04;98233.98;;;9.53;51.93
57847;BME280;43675;50.030;21.952;2023-04-26T09:40:36;98233.29;;;9.54;51.86
57847;BME280;43675;50.030;21.952;2023-04-26T09:45:43;98235.13;;;9.63;51.42
57847;BME280;43675;50.030;21.952;2023-04-26T09:50:39;98236.61;;;9.98;50.64
57847;BME280;43675;50.030;21.952;2023-04-26T09:53:06;98230.64;;;10.23;50.47
57847;BME280;43675;50.030;21.952;2023-04-26T09:55:33;98227.61;;;10.44;49.76
57847;BME280;43675;50.030;21.952;2023-04-26T09:58:07;98229.64;;;10.64;49.73
57847;BME280;43675;50.030;21.952;2023-04-26T10:00:33;98228.49;;;10.77;49.30
57847;BME280;43675;50.030;21.952;2023-04-26T10:03:03;98228.01;;;10.87;50.10
57847;BME280;43675;50.030;21.952;2023-04-26T10:05:31;98231.90;;;10.90;49.62
57847;BME280;43675;50.030;21.952;2023-04-26T10:07:57;98241.47;;;10.73;49.38
57847;BME280;43675;50.030;21.952;2023-04-26T10:10:24;98248.52;;;10.46;49.34
57847;BME280;43675;50.030;21.952;2023-04-26T10:12:51;98245.63;;;10.26;49.33
57847;BME280;43675;50.030;21.952;2023-04-26T10:15:18;98245.27;;;10.21;49.27
57847;BME280;43675;50.030;21.952;2023-04-26T10:17:45;98248.92;;;10.16;49.24
57847;BME280;43675;50.030;21.952;2023-04-26T10:20:13;98253.34;;;10.20;49.28
57847;BME280;43675;50.030;21.952;2023-04-26T10:22:45;98250.85;;;10.25;48.89
57847;BME280;43675;50.030;21.952;2023-04-26T10:25:15;98254.92;;;10.33;48.70
57847;BME280;43675;50.030;21.952;2023-04-26T10:30:10;98251.44;;;10.60;48.81
57847;BME280;43675;50.030;21.952;2023-04-26T10:35:26;98255.05;;;10.82;48.34
57847;BME280;43675;50.030;21.952;2023-04-26T10:45:39;98253.80;;;10.65;47.14
57847;BME280;43675;50.030;21.952;2023-04-26T10:48:30;98249.04;;;10.36;47.40
57847;BME280;43675;50.030;21.952;2023-04-26T10:53:28;98255.89;;;10.10;47.94
57847;BME280;43675;50.030;21.952;2023-04-26T10:55:55;98253.25;;;10.01;48.01
57847;BME280;43675;50.030;21.952;2023-04-26T10:58:31;98250.89;;;9.99;47.80
57847;BME280;43675;50.030;21.952;2023-04-26T11:01:08;98250.02;;;10.16;48.12
57847;BME280;43675;50.030;21.952;2023-04-26T11:03:35;98245.06;;;10.41;47.73
57847;BME280;43675;50.030;21.952;2023-04-26T11:06:08;98246.37;;;10.57;47.64
57847;BME280;43675;50.030;21.952;2023-04-26T11:08:35;98239.64;;;10.79;47.48
57847;BME280;43675;50.030;21.952;2023-04-26T11:13:32;98241.80;;;11.15;46.93
57847;BME280;43675;50.030;21.952;2023-04-26T11:16:01;98248.82;;;11.13;46.51
57847;BME280;43675;50.030;21.952;2023-04-26T11:18:27;98252.86;;;11.13;46.52
57847;BME280;43675;50.030;21.952;2023-04-26T11:20:55;98259.69;;;11.01;45.55
57847;BME280;43675;50.030;21.952;2023-04-26T11:23:22;98259.55;;;10.84;45.67
57847;BME280;43675;50.030;21.952;2023-04-26T11:25:49;98262.21;;;10.85;45.25
57847;BME280;43675;50.030;21.952;2023-04-26T11:28:17;98264.69;;;10.87;44.52
57847;BME280;43675;50.030;21.952;2023-04-26T11:30:44;98262.38;;;10.80;43.57
57847;BME280;43675;50.030;21.952;2023-04-26T11:33:18;98268.69;;;10.71;43.97
57847;BME280;43675;50.030;21.952;2023-04-26T11:35:46;98271.79;;;10.71;43.74
57847;BME280;43675;50.030;21.952;2023-04-26T11:38:12;98271.48;;;10.69;43.71
57847;BME280;43675;50.030;21.952;2023-04-26T11:40:39;98273.14;;;10.71;43.70
57847;BME280;43675;50.030;21.952;2023-04-26T11:43:07;98278.78;;;10.83;43.78
57847;BME280;43675;50.030;21.952;2023-04-26T11:45:35;98273.88;;;11.05;43.75
57847;BME280;43675;50.030;21.952;2023-04-26T11:48:05;98270.50;;;11.27;43.46
57847;BME280;43675;50.030;21.952;2023-04-26T11:50:33;98272.00;;;11.37;42.77
57847;BME280;43675;50.030;21.952;2023-04-26T11:53:03;98269.38;;;11.40;42.36
57847;BME280;43675;50.030;21.952;2023-04-26T11:55:31;98273.41;;;11.40;42.06
57847;BME280;43675;50.030;21.952;2023-04-26T11:57:58;98274.50;;;11.33;41.76
57847;BME280;43675;50.030;21.952;2023-04-26T12:00:25;98275.14;;;11.36;41.79
57847;BME280;43675;50.030;21.952;2023-04-26T12:02:52;98276.59;;;11.35;41.24
57847;BME280;43675;50.030;21.952;2023-04-26T12:07:54;98272.59;;;11.29;41.16
57847;BME280;43675;50.030;21.952;2023-04-26T12:10:24;98276.57;;;11.39;41.41
57847;BME280;43675;50.030;21.952;2023-04-26T12:12:52;98282.48;;;11.58;41.60
57847;BME280;43675;50.030;21.952;2023-04-26T12:15:24;98282.27;;;11.67;40.46
57847;BME280;43675;50.030;21.952;2023-04-26T12:17:52;98276.14;;;11.52;40.40
57847;BME280;43675;50.030;21.952;2023-04-26T12:20:25;98280.11;;;11.35;40.63
57847;BME280;43675;50.030;21.952;2023-04-26T12:23:18;98283.90;;;11.24;40.93
57847;BME280;43675;50.030;21.952;2023-04-26T12:25:55;98292.25;;;11.05;41.45
57847;BME280;43675;50.030;21.952;2023-04-26T12:28:22;98295.13;;;10.80;41.47
57847;BME280;43675;50.030;21.952;2023-04-26T12:30:50;98300.07;;;10.58;41.71
57847;BME280;43675;50.030;21.952;2023-04-26T12:33:17;98302.62;;;10.43;42.18
57847;BME280;43675;50.030;21.952;2023-04-26T12:35:43;98301.09;;;10.31;41.98
57847;BME280;43675;50.030;21.952;2023-04-26T12:38:10;98305.64;;;10.25;41.98
57847;BME280;43675;50.030;21.952;2023-04-26T12:40:37;98309.44;;;10.24;41.84
57847;BME280;43675;50.030;21.952;2023-04-26T12:43:04;98304.27;;;10.22;41.56
57847;BME280;43675;50.030;21.952;2023-04-26T12:45:30;98303.86;;;10.22;41.56
57847;BME280;43675;50.030;21.952;2023-04-26T12:47:57;98309.23;;;10.25;41.36
57847;BME280;43675;50.030;21.952;2023-04-26T12:50:24;98304.48;;;10.28;41.41
57847;BME280;43675;50.030;21.952;2023-04-26T12:52:50;98303.71;;;10.36;41.43
57847;BME280;43675;50.030;21.952;2023-04-26T12:55:17;98307.26;;;10.45;41.15
57847;BME280;43675;50.030;21.952;2023-04-26T12:57:44;98304.70;;;10.60;41.29
57847;BME280;43675;50.030;21.952;2023-04-26T13:00:15;98304.20;;;10.85;41.11
57847;BME280;43675;50.030;21.952;2023-04-26T13:02:43;98310.06;;;11.14;40.87
57847;BME280;43675;50.030;21.952;2023-04-26T13:05:09;98304.23;;;11.29;39.50
57847;BME280;43675;50.030;21.952;2023-04-26T13:07:38;98306.16;;;11.27;38.99
57847;BME280;43675;50.030;21.952;2023-04-26T13:10:06;98309.92;;;11.21;38.85
57847;BME280;43675;50.030;21.952;2023-04-26T13:12:33;98306.48;;;11.11;38.81
57847;BME280;43675;50.030;21.952;2023-04-26T13:15:00;98306.52;;;11.07;39.30
57847;BME280;43675;50.030;21.952;2023-04-26T13:17:26;98295.29;;;11.07;39.42
57847;BME280;43675;50.030;21.952;2023-04-26T13:19:53;98294.22;;;11.12;39.71
57847;BME280;43675;50.030;21.952;2023-04-26T13:22:20;98301.29;;;11.18;39.97
57847;BME280;43675;50.030;21.952;2023-04-26T13:24:47;98315.46;;;11.12;40.02
57847;BME280;43675;50.030;21.952;2023-04-26T13:27:13;98312.10;;;11.00;40.19
57847;BME280;43675;50.030;21.952;2023-04-26T13:29:40;98313.34;;;10.87;40.52